Buffalo Hart, Illinois
Current Conditions -  °F | °C
As of 3:52 AM on Saturday 27 Dec 2014 (Local Time) from KSPI Reporting Station
Overcast Overcast  
Wind Chill: 42°   Ceiling: 600
Heat Index: 48°   Visibility: 10mi
Dew Point: 45°   Wind: 14mph
Humidity: 89%   Direction: 190°S
Pressure: 30.02"   Gusts: NA
Location:  39.8448°N, 89.3474°W
Report Text: KSPI 270952Z AUTO 19012KT 10SM OVC006 09/07 A3002 RMK AO2 SLP166 T00890072
Loading
Personal Weather Stations






























Interactive Weather Map New forecast layout! Learn more

10-Day Weather Forecast

Advertisements
Track Severe Weather on mobile